NCAR-RAP Real-Time Weather Data

Output produced by METARs form (08 May 2021  01:39 UTC)
found at http://weather.rap.ucar.edu/surface/
 
KMHK 080052Z 12008KT 10SM CLR 20/08 A2994 RMK AO2 SLP137 T02000078
KMHK 072352Z 14009KT 10SM CLR 22/08 A2995 RMK AO2 SLP141 T02170078 10233 20139 56026
KMHK 072252Z 16011KT 10SM FEW075 23/08 A2997 RMK AO2 SLP149 T02280083
KMHK 072152Z 08011KT 10SM CLR 22/11 A2999 RMK AO2 SLP157 T02170106
KMHK 072052Z 09010G15KT 10SM CLR 21/11 A3003 RMK AO2 SLP169 T02110111 56030
KMHK 071952Z 13007KT 10SM OVC060 19/11 A3005 RMK AO2 SLP178 T01890106
KMHK 071852Z 13006KT 10SM OVC065 17/09 A3008 RMK AO2 SLP188 T01670094
KMHK 071752Z 17003KT 10SM OVC070 14/09 A3012 RMK AO2 RAB18E31 SLP202 P0000 60000 T01390089 10161 20044 58009
KMHK 071652Z 26005KT 10SM BKN060 OVC075 14/06 A3015 RMK AO2 LTG DSNT S SLP212 T01440056
KMHK 071552Z 21007KT 10SM OVC080 16/04 A3015 RMK AO2 SLP210 T01610039
KMHK 071452Z 24004KT 10SM OVC080 15/04 A3015 RMK AO2 SLP211 T01500039 58002
KMHK 071352Z 22004KT 10SM OVC085 13/03 A3015 RMK AO2 SLP211 T01330033
KMHK 071252Z 00000KT 10SM CLR 10/03 A3016 RMK AO2 SLP212 T01000033
KMHK 071152Z 00000KT 10SM CLR 04/02 A3016 RMK AO2 SLP212 T00440022 10061 20028 53001
KMHK 071052Z 00000KT 10SM CLR 04/02 A3014 RMK AO2 SLP208 T00440017